Sandovalina, Brazil
Current Conditions -  °F | °C
As of 3:00 PM on Saturday 25 Oct 2014 (Local Time) from SBDN Reporting Station
Overcast Overcast  
Wind Chill: 75°   Ceiling: 10000
Heat Index: 75°   Visibility: 6mi
Dew Point: 66°   Wind: 10mph
Humidity: 73%   Direction: 40°NE
Pressure: 29.97"   Gusts: NA
Location:  22.46°S, 51.76°W
Report Text: SBDN 251700Z 04009KT 350V090 9999 SCT012 OVC100 24/19 Q1015
Loading
Personal Weather Stations






























Interactive Weather Map
Tropical Storm Tracking
New forecast layout! Learn more

10-Day Weather Forecast

Advertisements
Track Severe Weather on mobile